Time;durP1;ratioP1;P1;durP2;ratioP2;P2;SDS_P1;SDS_P2;PMS_P1;PMS_P2;Temp;Humidity;BMP_temperature;BMP_pressure;BME280_temperature;BME280_humidity;BME280_pressure;Samples;Min_cycle;Max_cycle;Signal;HPM_P1;HPM_P2
2022/03/16 00:01:14;;;;;;;34.97;27.40;;;11.60;60.70;;;;;;20827;6807;117960;-71
2022/03/16 00:03:40;;;;;;;37.90;33.97;;;11.40;62.10;;;;;;20628;6807;282487;-74
2022/03/16 00:06:06;;;;;;;39.13;35.22;;;11.40;62.10;;;;;;20625;6807;287376;-72
2022/03/16 00:08:32;;;;;;;39.23;35.27;;;11.90;60.70;;;;;;20629;6807;278837;-71
2022/03/16 00:10:58;;;;;;;38.45;34.33;;;11.90;60.20;;;;;;20622;6805;337071;-72
2022/03/16 00:13:24;;;;;;;38.70;34.75;;;12.20;59.20;;;;;;20611;6806;325090;-72
2022/03/16 00:15:50;;;;;;;31.63;28.27;;;12.20;59.20;;;;;;20841;6806;117368;-72
2022/03/16 00:18:15;;;;;;;36.42;32.90;;;12.00;59.30;;;;;;20631;6806;278020;-74
2022/03/16 00:20:41;;;;;;;36.22;32.63;;;12.00;59.60;;;;;;20602;6813;277876;-72
2022/03/16 00:23:07;;;;;;;30.77;27.67;;;12.00;59.70;;;;;;20800;6807;118945;-72
2022/03/16 00:25:33;;;;;;;32.60;29.30;;;11.80;59.70;;;;;;20618;6807;310348;-72
2022/03/16 00:27:58;;;;;;;26.10;23.27;;;11.80;59.70;;;;;;20840;6807;117833;-72
2022/03/16 00:30:24;;;;;;;29.73;26.90;;;11.70;59.60;;;;;;20593;6813;276894;-74
2022/03/16 00:32:49;;;;;;;26.20;23.52;;;11.70;59.60;;;;;;20814;6813;117509;-74
2022/03/16 00:35:15;;;;;;;24.17;21.67;;;11.60;59.80;;;;;;20799;6813;123242;-72
2022/03/16 00:37:41;;;;;;;23.77;21.40;;;11.30;60.10;;;;;;20806;6813;118500;-72
2022/03/16 00:40:09;;;;;;;25.17;22.48;;;11.10;60.90;;;;;;20817;6813;117321;-74
2022/03/16 00:42:32;;;;;;;31.33;28.23;;;10.90;61.40;;;;;;20602;6813;278129;-71
2022/03/16 00:44:58;;;;;;;26.47;23.77;;;11.10;61.50;;;;;;20815;6813;117831;-74
2022/03/16 00:47:25;;;;;;;31.77;28.57;;;11.10;60.80;;;;;;20591;6813;282662;-71
2022/03/16 00:49:51;;;;;;;28.30;24.53;;;11.30;61.00;;;;;;20839;6807;117751;-72
2022/03/16 00:52:17;;;;;;;34.25;30.55;;;11.40;60.40;;;;;;20633;6807;277828;-71
2022/03/16 00:54:42;;;;;;;37.63;33.60;;;11.40;60.40;;;;;;20630;6807;279526;-72
2022/03/16 00:57:09;;;;;;;35.97;32.17;;;11.80;59.30;;;;;;20607;6807;295355;-73
2022/03/16 00:59:34;;;;;;;37.23;33.03;;;11.80;59.10;;;;;;20627;6807;311061;-72
2022/03/16 01:02:00;;;;;;;38.03;27.77;;;12.00;58.50;;;;;;20834;6807;117781;-74
2022/03/16 01:04:25;;;;;;;32.33;27.10;;;11.80;58.60;;;;;;20824;6814;117917;-72
2022/03/16 01:06:53;;;;;;;34.10;30.58;;;11.50;59.40;;;;;;20605;6814;342383;-72
2022/03/16 01:09:17;;;;;;;40.25;33.15;;;11.50;60.00;;;;;;20575;6814;306763;-71
2022/03/16 01:11:42;;;;;;;31.07;27.77;;;11.80;59.60;;;;;;20784;6826;121335;-72
2022/03/16 01:14:08;;;;;;;34.43;30.70;;;11.70;59.50;;;;;;20567;6826;278294;-74
2022/03/16 01:16:35;;;;;;;30.23;26.93;;;11.80;60.00;;;;;;20787;6824;117561;-71
2022/03/16 01:18:59;;;;;;;33.70;26.50;;;11.70;59.80;;;;;;20765;6824;123225;-71
2022/03/16 01:21:24;;;;;;;29.00;25.62;;;11.40;60.10;;;;;;20760;6818;124101;-72
2022/03/16 01:23:50;;;;;;;36.10;32.40;;;11.20;60.60;;;;;;20559;6830;316142;-73
2022/03/16 01:26:16;;;;;;;36.70;32.70;;;11.40;60.60;;;;;;20557;6830;278760;-71
2022/03/16 01:28:41;;;;;;;28.67;25.20;;;11.70;59.80;;;;;;20760;6830;118429;-71
2022/03/16 01:31:07;;;;;;;29.07;23.07;;;11.60;59.40;;;;;;20745;6823;118312;-72
2022/03/16 01:33:32;;;;;;;30.48;23.20;;;11.30;59.80;;;;;;20783;6823;117515;-71
2022/03/16 01:35:58;;;;;;;31.10;23.40;;;11.10;60.30;;;;;;20774;6823;117540;-71
2022/03/16 01:38:23;;;;;;;30.83;22.50;;;10.90;60.60;;;;;;20794;6823;117276;-73
2022/03/16 01:40:49;;;;;;;28.70;22.30;;;10.80;60.90;;;;;;20795;6820;117575;-74
2022/03/16 01:43:14;;;;;;;28.63;21.70;;;10.60;61.30;;;;;;20776;6820;117450;-71
2022/03/16 01:45:47;;;;;;;34.80;29.43;;;10.50;61.50;;;;;;20585;6820;277623;-73
2022/03/16 01:48:12;;;;;;;32.55;29.30;;;10.80;61.80;;;;;;20579;6820;335599;-72
2022/03/16 01:50:38;;;;;;;31.27;28.10;;;11.20;61.00;;;;;;20587;6820;277500;-72
2022/03/16 01:53:04;;;;;;;31.20;26.75;;;11.50;59.80;;;;;;20573;6820;335539;-74
2022/03/16 01:55:29;;;;;;;29.73;26.73;;;11.80;58.90;;;;;;20438;6820;287311;-72
2022/03/16 01:57:55;;;;;;;29.97;26.97;;;12.00;58.20;;;;;;20577;6820;310058;-71
2022/03/16 02:00:22;;;;;;;28.95;26.12;;;12.30;57.10;;;;;;20585;6820;309300;-74
2022/03/16 02:02:47;;;;;;;28.17;23.73;;;12.30;57.10;;;;;;20795;6820;117613;-71
2022/03/16 02:05:12;;;;;;;23.50;21.20;;;12.10;57.40;;;;;;20767;6820;120021;-72
2022/03/16 02:07:38;;;;;;;28.00;25.23;;;11.80;58.90;;;;;;20593;6820;277152;-74
2022/03/16 02:10:04;;;;;;;23.67;21.20;;;11.70;58.20;;;;;;20786;6820;117302;-73
2022/03/16 02:12:31;;;;;;;28.10;25.20;;;11.80;58.20;;;;;;20574;6820;309015;-72
2022/03/16 02:14:56;;;;;;;27.83;25.02;;;11.80;58.20;;;;;;20543;6820;307020;-71
2022/03/16 02:17:22;;;;;;;24.60;22.20;;;12.10;57.70;;;;;;20787;6820;118100;-72
2022/03/16 02:19:48;;;;;;;28.30;25.50;;;12.00;57.20;;;;;;20587;6820;330437;-71
2022/03/16 02:22:14;;;;;;;30.23;27.23;;;12.00;57.20;;;;;;20574;6820;335646;-72
2022/03/16 02:24:39;;;;;;;25.00;22.33;;;12.20;56.60;;;;;;20782;6820;118162;-72
2022/03/16 02:27:05;;;;;;;26.50;21.50;;;12.10;56.80;;;;;;20770;6820;146204;-72
2022/03/16 02:29:31;;;;;;;24.87;21.67;;;11.80;57.40;;;;;;20792;6820;117939;-71
2022/03/16 02:31:56;;;;;;;28.97;26.17;;;11.50;58.00;;;;;;20595;6805;306915;-74
2022/03/16 02:34:21;;;;;;;28.40;25.50;;;11.60;58.20;;;;;;20601;6803;311028;-73
2022/03/16 02:36:47;;;;;;;28.87;25.83;;;11.90;57.50;;;;;;20532;6826;306707;-71
2022/03/16 02:39:12;;;;;;;24.40;21.80;;;12.10;56.70;;;;;;20801;6807;118770;-71
2022/03/16 02:41:39;;;;;;;28.10;25.23;;;12.00;57.20;;;;;;20567;6822;276831;-74
2022/03/16 02:44:04;;;;;;;25.03;20.60;;;12.00;57.20;;;;;;20781;6822;118545;-71
2022/03/16 02:46:30;;;;;;;21.07;18.87;;;11.90;57.40;;;;;;20820;6807;123744;-74
2022/03/16 02:48:55;;;;;;;23.00;20.60;;;11.70;58.00;;;;;;20834;6807;117726;-73
2022/03/16 02:51:21;;;;;;;29.58;26.52;;;11.50;58.70;;;;;;20539;6807;307637;-71
2022/03/16 02:53:47;;;;;;;29.33;26.53;;;11.70;58.90;;;;;;20581;6820;307079;-72
2022/03/16 02:56:12;;;;;;;30.25;27.33;;;12.00;58.40;;;;;;20562;6820;282359;-73
2022/03/16 02:58:38;;;;;;;28.20;25.40;;;12.30;57.50;;;;;;20757;6834;117444;-71
2022/03/16 03:01:03;;;;;;;33.58;30.08;;;12.20;57.20;;;;;;20573;6824;307478;-71
2022/03/16 03:03:29;;;;;;;33.40;30.02;;;12.20;56.80;;;;;;20533;6834;311969;-73
2022/03/16 03:05:55;;;;;;;36.13;32.40;;;12.30;56.40;;;;;;20508;6838;278407;-71
2022/03/16 03:08:20;;;;;;;31.27;27.73;;;12.50;55.90;;;;;;20792;6820;117827;-71
2022/03/16 03:10:45;;;;;;;31.87;26.23;;;12.30;56.00;;;;;;20789;6820;117420;-73
2022/03/16 03:13:14;;;;;;;33.73;30.50;;;11.90;57.20;;;;;;20557;6820;310551;-71
2022/03/16 03:15:42;;;;;;;28.03;25.00;;;11.80;57.20;;;;;;20794;6820;118016;-70
2022/03/16 03:18:07;;;;;;;29.27;25.73;;;11.80;57.20;;;;;;20788;6820;117213;-72
2022/03/16 03:20:32;;;;;;;33.00;29.75;;;11.60;57.90;;;;;;20576;6820;336052;-74
2022/03/16 03:22:58;;;;;;;29.23;25.02;;;11.70;58.40;;;;;;20789;6820;117584;-71
2022/03/16 03:25:24;;;;;;;25.80;22.90;;;11.70;58.20;;;;;;20775;6820;117938;-71
2022/03/16 03:28:09;;;;;;;30.50;27.60;;;11.50;58.50;;;;;;20576;6820;311013;-71
2022/03/16 03:30:45;;;;;;;27.10;24.20;;;11.60;58.60;;;;;;20877;6698;118707;-73
2022/03/16 03:33:21;;;;;;;32.40;29.10;;;11.60;58.60;;;;;;20702;6703;305284;-71
2022/03/16 03:35:56;;;;;;;28.27;25.13;;;11.80;58.30;;;;;;21004;6692;117954;-72
2022/03/16 03:38:32;;;;;;;29.40;26.23;;;11.70;58.00;;;;;;21058;6682;117503;-72
2022/03/16 03:41:08;;;;;;;34.05;30.85;;;11.60;58.20;;;;;;20659;6712;282729;-73
2022/03/16 03:43:44;;;;;;;27.80;24.90;;;11.60;58.20;;;;;;20991;6708;117855;-71
2022/03/16 03:46:20;;;;;;;26.93;24.13;;;11.60;58.00;;;;;;21042;6689;117180;-71
2022/03/16 03:48:55;;;;;;;27.13;24.33;;;11.40;58.40;;;;;;20965;6691;117998;-73
2022/03/16 03:51:34;;;;;;;34.90;31.50;;;11.40;58.60;;;;;;20638;6707;313938;-71
2022/03/16 03:54:07;;;;;;;36.00;32.23;;;11.40;58.60;;;;;;20757;6705;277776;-71
2022/03/16 03:56:42;;;;;;;32.87;27.67;;;11.70;57.80;;;;;;20949;6729;117247;-71
2022/03/16 03:59:20;;;;;;;35.10;31.58;;;11.70;57.70;;;;;;20733;6712;304147;-70
2022/03/16 04:01:54;;;;;;;30.23;27.10;;;11.70;57.70;;;;;;20726;6726;118008;-71
2022/03/16 04:04:30;;;;;;;36.30;32.70;;;11.60;57.60;;;;;;20715;6711;287372;-73
2022/03/16 04:07:06;;;;;;;36.78;33.17;;;11.70;57.60;;;;;;20651;6741;305323;-73
2022/03/16 04:09:41;;;;;;;37.37;33.67;;;11.90;57.00;;;;;;20809;6696;307715;-71
2022/03/16 04:12:18;;;;;;;31.90;28.50;;;12.10;56.30;;;;;;20809;6752;119178;-72
2022/03/16 04:14:53;;;;;;;38.88;34.50;;;11.90;56.80;;;;;;20726;6711;277021;-74
2022/03/16 04:17:29;;;;;;;34.47;29.30;;;11.90;57.40;;;;;;20979;6701;120177;-71
2022/03/16 04:20:05;;;;;;;38.07;30.90;;;11.70;56.80;;;;;;20958;6706;117392;-74
2022/03/16 04:22:40;;;;;;;104.97;93.63;;;11.40;57.50;;;;;;20724;6721;302063;-74
2022/03/16 04:25:16;;;;;;;45.75;39.08;;;11.50;58.60;;;;;;20755;6704;337824;-71
2022/03/16 04:27:51;;;;;;;42.53;32.10;;;11.80;58.20;;;;;;20951;6719;117681;-71
2022/03/16 04:30:27;;;;;;;44.37;32.30;;;11.70;58.00;;;;;;20939;6704;117143;-74
2022/03/16 04:33:03;;;;;;;43.23;31.43;;;11.40;58.50;;;;;;21020;6694;117019;-71
2022/03/16 04:35:39;;;;;;;47.05;37.95;;;11.30;59.90;;;;;;20774;6689;332744;-72
2022/03/16 04:38:15;;;;;;;44.27;32.87;;;11.30;59.90;;;;;;21011;6699;117531;-72
2022/03/16 04:40:50;;;;;;;44.93;32.07;;;11.40;59.50;;;;;;20880;6706;117945;-71
2022/03/16 04:43:26;;;;;;;38.73;28.93;;;11.20;59.70;;;;;;20941;6709;123147;-72
2022/03/16 04:46:01;;;;;;;40.90;36.50;;;11.00;60.00;;;;;;20794;6694;333056;-72
2022/03/16 04:48:37;;;;;;;42.27;37.73;;;11.20;59.80;;;;;;20804;6694;304408;-73
2022/03/16 04:51:12;;;;;;;35.87;31.63;;;11.50;58.50;;;;;;20882;6694;117890;-71
2022/03/16 04:53:48;;;;;;;41.33;37.00;;;11.40;58.10;;;;;;20768;6703;333819;-73
2022/03/16 04:56:23;;;;;;;35.93;31.80;;;11.50;58.40;;;;;;20998;6703;117121;-71
2022/03/16 04:58:59;;;;;;;34.63;29.83;;;11.40;58.30;;;;;;21045;6688;116841;-69
2022/03/16 05:01:35;;;;;;;35.33;30.87;;;11.10;59.00;;;;;;20892;6688;117820;-71
2022/03/16 05:04:11;;;;;;;43.25;38.65;;;11.10;60.30;;;;;;20793;6694;333420;-69
2022/03/16 05:06:46;;;;;;;40.57;32.73;;;11.00;60.20;;;;;;20978;6694;116994;-71
2022/03/16 05:09:22;;;;;;;43.95;39.22;;;11.10;60.00;;;;;;20748;6694;336898;-70
2022/03/16 05:11:58;;;;;;;42.80;38.38;;;11.20;59.40;;;;;;20525;6729;307792;-69
2022/03/16 05:14:33;;;;;;;44.57;39.73;;;11.50;58.50;;;;;;20715;6714;305408;-71
2022/03/16 05:17:09;;;;;;;37.77;32.87;;;11.80;57.90;;;;;;20985;6699;117425;-70
2022/03/16 05:19:45;;;;;;;44.92;40.12;;;11.60;58.10;;;;;;20742;6719;297355;-71
2022/03/16 05:22:21;;;;;;;38.43;32.97;;;11.60;58.00;;;;;;20915;6724;118095;-71
2022/03/16 05:24:56;;;;;;;41.27;32.53;;;11.40;57.90;;;;;;20913;6728;118349;-70
2022/03/16 05:27:32;;;;;;;47.42;40.60;;;11.20;58.40;;;;;;20635;6750;305737;-69
2022/03/16 05:30:08;;;;;;;48.63;42.07;;;11.20;59.00;;;;;;20694;6726;309990;-70
2022/03/16 05:32:43;;;;;;;47.77;42.67;;;11.50;58.50;;;;;;20667;6730;309901;-68
2022/03/16 05:35:19;;;;;;;42.87;35.37;;;11.70;58.00;;;;;;20902;6727;117640;-71
2022/03/16 05:37:55;;;;;;;51.45;42.80;;;11.50;58.50;;;;;;20610;6749;337391;-68
2022/03/16 05:40:31;;;;;;;45.10;36.73;;;11.50;58.50;;;;;;20847;6733;117227;-67
2022/03/16 05:43:09;;;;;;;57.80;45.95;;;11.30;58.50;;;;;;20724;6717;320897;-68
2022/03/16 05:45:45;;;;;;;59.25;46.80;;;11.30;58.70;;;;;;20710;6726;309908;-68
2022/03/16 05:48:18;;;;;;;59.83;46.37;;;11.50;58.50;;;;;;20661;6741;306109;-70
2022/03/16 05:50:53;;;;;;;57.17;44.50;;;11.70;58.20;;;;;;20610;6741;277686;-68
2022/03/16 05:53:30;;;;;;;64.97;48.65;;;11.80;57.70;;;;;;20739;6711;305309;-69
2022/03/16 05:56:06;;;;;;;57.83;40.53;;;11.90;57.40;;;;;;21016;6696;117587;-67
2022/03/16 05:58:41;;;;;;;60.07;39.07;;;11.70;57.70;;;;;;21011;6696;118316;-67
2022/03/16 06:01:18;;;;;;;56.90;37.50;;;11.00;59.40;;;;;;20855;6696;144325;-67
2022/03/16 06:03:54;;;;;;;62.20;38.10;;;10.90;59.30;;;;;;20955;6711;118236;-67
2022/03/16 06:06:29;;;;;;;73.43;49.28;;;10.70;60.00;;;;;;20754;6711;337060;-67
2022/03/16 06:09:05;;;;;;;55.17;38.13;;;10.90;61.10;;;;;;20944;6711;117149;-71
2022/03/16 06:11:41;;;;;;;73.03;48.10;;;10.90;60.80;;;;;;20580;6721;307945;-67
2022/03/16 06:14:15;;;;;;;61.37;40.80;;;11.10;61.10;;;;;;20940;6721;117523;-67
2022/03/16 06:16:52;;;;;;;60.12;46.72;;;11.10;60.50;;;;;;20732;6710;331848;-68
2022/03/16 06:19:27;;;;;;;54.10;38.20;;;11.10;60.50;;;;;;21001;6693;117852;-67
2022/03/16 06:22:03;;;;;;;47.23;35.87;;;11.10;60.50;;;;;;20846;6693;119001;-67
2022/03/16 06:24:39;;;;;;;51.87;36.57;;;11.00;60.90;;;;;;20969;6711;117846;-67
2022/03/16 06:27:14;;;;;;;58.22;46.03;;;10.80;61.40;;;;;;20747;6711;275403;-67
2022/03/16 06:29:50;;;;;;;59.58;49.10;;;10.90;61.80;;;;;;20752;6711;275964;-67
2022/03/16 06:32:26;;;;;;;68.17;51.27;;;11.30;61.10;;;;;;20699;6730;306012;-67
2022/03/16 06:35:01;;;;;;;56.00;43.07;;;11.60;60.20;;;;;;20929;6726;118789;-67
2022/03/16 06:37:37;;;;;;;52.93;38.17;;;11.50;60.00;;;;;;20979;6711;117706;-67
2022/03/16 06:40:12;;;;;;;61.87;45.70;;;11.30;60.60;;;;;;20663;6726;340323;-67
2022/03/16 06:42:48;;;;;;;61.05;46.50;;;11.40;60.80;;;;;;20812;6696;297127;-67
2022/03/16 06:45:23;;;;;;;60.00;40.00;;;11.70;60.30;;;;;;21005;6696;117341;-67
2022/03/16 06:47:59;;;;;;;59.28;46.17;;;11.60;60.00;;;;;;20795;6696;325871;-67
2022/03/16 06:50:35;;;;;;;65.68;46.95;;;11.80;59.70;;;;;;20729;6696;307242;-67
2022/03/16 06:53:11;;;;;;;55.43;38.57;;;11.80;59.70;;;;;;20996;6696;117758;-67
2022/03/16 06:55:46;;;;;;;53.10;37.43;;;11.70;59.50;;;;;;21016;6696;117781;-67
2022/03/16 06:58:22;;;;;;;93.17;39.33;;;11.40;60.20;;;;;;21015;6696;116976;-67
2022/03/16 07:00:58;;;;;;;68.28;50.05;;;11.30;61.50;;;;;;20686;6696;306715;-67
2022/03/16 07:03:34;;;;;;;85.10;48.67;;;11.30;61.50;;;;;;20789;6696;275425;-69
2022/03/16 07:06:10;;;;;;;55.70;44.75;;;11.90;60.30;;;;;;20806;6696;341186;-68
2022/03/16 07:08:46;;;;;;;59.47;43.80;;;11.90;60.30;;;;;;20919;6730;117262;-67
2022/03/16 07:11:21;;;;;;;69.80;39.00;;;11.80;60.10;;;;;;20845;6709;121766;-67
2022/03/16 07:14:47;;;;;;;66.70;47.62;;;11.50;60.40;;;;;;20770;6708;275346;-67
2022/03/16 07:16:33;;;;;;;64.27;38.17;;;11.60;60.70;;;;;;20682;6765;122142;-66
2022/03/16 07:19:08;;;;;;;64.53;44.97;;;11.50;60.50;;;;;;20711;6708;338028;-67
2022/03/16 07:21:44;;;;;;;74.22;46.55;;;11.90;60.00;;;;;;20620;6708;306518;-68
2022/03/16 07:24:20;;;;;;;66.03;45.83;;;11.90;60.00;;;;;;20763;6708;308515;-70
2022/03/16 07:26:56;;;;;;;51.47;35.87;;;12.10;59.40;;;;;;20971;6708;116992;-71
2022/03/16 07:29:31;;;;;;;50.57;34.37;;;12.00;59.40;;;;;;21002;6693;119573;-71
2022/03/16 07:32:07;;;;;;;59.97;43.67;;;11.70;60.20;;;;;;20630;6693;334903;-70
2022/03/16 07:34:43;;;;;;;58.92;42.92;;;11.90;60.40;;;;;;20806;6693;337073;-70
2022/03/16 07:37:19;;;;;;;54.13;38.17;;;12.10;59.10;;;;;;20980;6699;120996;-69
2022/03/16 07:39:54;;;;;;;51.58;40.85;;;12.10;59.10;;;;;;20696;6723;304615;-67
2022/03/16 07:42:30;;;;;;;57.75;45.03;;;12.20;59.10;;;;;;20758;6708;275878;-67
2022/03/16 07:45:05;;;;;;;49.40;37.07;;;12.40;58.50;;;;;;20955;6708;116931;-71
2022/03/16 07:47:41;;;;;;;58.17;43.87;;;12.30;58.50;;;;;;20741;6714;279250;-68
2022/03/16 07:50:17;;;;;;;59.28;45.30;;;12.40;58.30;;;;;;20607;6738;307197;-69
2022/03/16 07:52:52;;;;;;;63.25;45.45;;;12.60;57.70;;;;;;20722;6723;305062;-68
2022/03/16 07:55:28;;;;;;;59.87;44.17;;;12.80;57.00;;;;;;20646;6734;302923;-68
2022/03/16 07:58:03;;;;;;;51.67;37.60;;;12.90;56.40;;;;;;20971;6708;116914;-68
2022/03/16 08:00:39;;;;;;;48.67;33.57;;;12.80;56.70;;;;;;20922;6708;117606;-69
2022/03/16 08:03:15;;;;;;;48.20;39.55;;;12.40;57.50;;;;;;20825;6685;302602;-69
2022/03/16 08:05:50;;;;;;;40.60;33.30;;;12.50;57.60;;;;;;21028;6694;117649;-69
2022/03/16 08:08:26;;;;;;;48.28;39.90;;;12.40;57.70;;;;;;20761;6708;304952;-71
2022/03/16 08:11:01;;;;;;;51.63;41.27;;;12.60;57.80;;;;;;20651;6708;308320;-70
2022/03/16 08:13:37;;;;;;;50.23;41.30;;;12.90;57.20;;;;;;20745;6708;280297;-71
2022/03/16 08:16:13;;;;;;;55.53;43.65;;;13.10;56.10;;;;;;20753;6708;304553;-69
2022/03/16 08:18:48;;;;;;;57.37;39.13;;;13.30;55.20;;;;;;20970;6708;117080;-70
2022/03/16 08:21:24;;;;;;;54.90;37.17;;;13.00;55.30;;;;;;20835;6708;117409;-71
2022/03/16 08:23:59;;;;;;;57.37;37.77;;;12.60;56.00;;;;;;20974;6708;117851;-69
2022/03/16 08:26:35;;;;;;;64.45;45.42;;;12.30;56.80;;;;;;20743;6708;276596;-68
2022/03/16 08:29:10;;;;;;;58.80;39.93;;;12.30;57.10;;;;;;20951;6717;123512;-70
2022/03/16 08:31:46;;;;;;;61.53;45.90;;;12.20;56.90;;;;;;20618;6707;306558;-71
2022/03/16 08:34:22;;;;;;;58.60;43.05;;;12.60;56.50;;;;;;20770;6706;280356;-70
2022/03/16 08:37:00;;;;;;;51.73;37.53;;;12.60;56.50;;;;;;20983;6706;116859;-70
2022/03/16 08:39:34;;;;;;;47.90;35.20;;;12.40;56.60;;;;;;20967;6706;116790;-70
2022/03/16 08:42:12;;;;;;;48.57;35.20;;;12.20;57.10;;;;;;20800;6707;117379;-70
2022/03/16 08:44:46;;;;;;;50.60;40.53;;;12.00;57.80;;;;;;20814;6692;275292;-70
2022/03/16 08:47:22;;;;;;;48.63;40.35;;;12.10;56.90;;;;;;20802;6692;305141;-71
2022/03/16 08:50:00;;;;;;;49.33;42.30;;;12.40;56.20;;;;;;20748;6707;304910;-71
2022/03/16 08:52:33;;;;;;;55.87;39.00;;;12.70;56.10;;;;;;21029;6692;117199;-69
2022/03/16 08:55:09;;;;;;;39.57;32.17;;;12.60;56.10;;;;;;20989;6692;119036;-71
2022/03/16 08:57:44;;;;;;;35.33;30.20;;;12.30;56.50;;;;;;21042;6692;117276;-70
2022/03/16 09:00:20;;;;;;;40.00;32.50;;;12.10;57.10;;;;;;20990;6692;117112;-70
2022/03/16 09:02:56;;;;;;;36.90;29.57;;;11.90;57.50;;;;;;20980;6707;116866;-70
2022/03/16 09:05:31;;;;;;;41.97;37.42;;;11.80;57.80;;;;;;20755;6707;277687;-70
2022/03/16 09:08:08;;;;;;;37.73;31.67;;;12.10;57.10;;;;;;20985;6707;117310;-71
2022/03/16 09:10:43;;;;;;;35.83;29.80;;;12.20;56.90;;;;;;20915;6707;117124;-70
2022/03/16 09:13:20;;;;;;;38.10;30.13;;;12.10;57.30;;;;;;20957;6707;117792;-70
2022/03/16 09:15:56;;;;;;;34.67;29.50;;;12.10;57.60;;;;;;20983;6707;117787;-70
2022/03/16 09:18:31;;;;;;;32.93;28.40;;;12.10;57.90;;;;;;20981;6707;118024;-70
2022/03/16 09:21:07;;;;;;;36.33;32.83;;;12.40;57.50;;;;;;20663;6707;310515;-70
2022/03/16 09:23:42;;;;;;;32.80;29.20;;;12.40;57.50;;;;;;20976;6707;117454;-70
2022/03/16 09:26:21;;;;;;;36.60;32.90;;;12.60;56.90;;;;;;20763;6707;337573;-70
2022/03/16 09:28:55;;;;;;;31.03;27.93;;;12.90;56.00;;;;;;20975;6707;121786;-70
2022/03/16 09:31:30;;;;;;;29.13;26.23;;;13.00;55.90;;;;;;20837;6707;117888;-69
2022/03/16 09:34:05;;;;;;;28.77;25.77;;;13.00;56.20;;;;;;21021;6692;117952;-73
2022/03/16 09:36:45;;;;;;;28.30;25.30;;;12.90;56.40;;;;;;20987;6707;117216;-70
2022/03/16 09:39:20;;;;;;;27.00;24.20;;;12.90;56.60;;;;;;20965;6707;117053;-69
2022/03/16 09:41:56;;;;;;;32.40;29.27;;;12.90;56.60;;;;;;20603;6707;277486;-70
2022/03/16 09:44:31;;;;;;;27.87;25.17;;;13.20;55.40;;;;;;21033;6691;117230;-69
2022/03/16 09:47:10;;;;;;;32.53;29.52;;;13.40;54.90;;;;;;20797;6692;304273;-70
2022/03/16 09:49:46;;;;;;;31.73;28.73;;;14.00;53.30;;;;;;20776;6706;312261;-70
2022/03/16 09:52:22;;;;;;;27.10;24.43;;;14.00;53.30;;;;;;20973;6706;119001;-70
2022/03/16 09:54:57;;;;;;;32.60;29.70;;;14.10;53.50;;;;;;20811;6692;279124;-70
2022/03/16 09:57:33;;;;;;;31.77;28.73;;;14.30;53.20;;;;;;20799;6692;274600;-70
2022/03/16 10:00:12;;;;;;;31.20;28.40;;;14.70;53.10;;;;;;20785;6692;335698;-70
2022/03/16 10:02:48;;;;;;;27.10;24.60;;;15.00;51.20;;;;;;21025;6692;116988;-70
2022/03/16 10:05:24;;;;;;;27.23;24.33;;;15.00;51.40;;;;;;21006;6692;121145;-70
2022/03/16 10:08:05;;;;;;;25.97;23.47;;;14.80;51.70;;;;;;21027;6692;116904;-71
2022/03/16 10:13:32;;;;;;;25.83;23.43;;;14.80;51.90;;;;;;21005;6692;122589;-71
2022/03/16 10:16:07;;;;;;;29.95;27.20;;;14.80;51.90;;;;;;20810;6692;303764;-71
2022/03/16 10:18:46;;;;;;;30.07;27.47;;;14.90;51.60;;;;;;20813;6692;274620;-70
2022/03/16 10:21:19;;;;;;;30.27;27.47;;;15.60;50.60;;;;;;20684;6692;281544;-71
2022/03/16 10:23:55;;;;;;;30.33;27.37;;;15.50;50.50;;;;;;20818;6692;278899;-71
2022/03/16 10:26:30;;;;;;;26.73;24.13;;;15.80;50.00;;;;;;21026;6692;117927;-71
2022/03/16 10:29:06;;;;;;;26.00;23.30;;;15.70;51.00;;;;;;21006;6692;117820;-69
2022/03/16 10:31:42;;;;;;;24.13;21.67;;;15.40;50.90;;;;;;20887;6692;117566;-70
2022/03/16 10:34:18;;;;;;;30.08;27.27;;;15.30;50.90;;;;;;20800;6692;275632;-70
2022/03/16 10:36:53;;;;;;;28.73;26.13;;;15.20;50.80;;;;;;20804;6692;279011;-70
2022/03/16 10:39:33;;;;;;;24.70;22.40;;;15.50;50.50;;;;;;20964;6707;116771;-70
2022/03/16 10:48:18;;;;;;;23.27;21.07;;;15.00;51.20;;;;;;20935;6725;117204;-71
2022/03/16 10:50:55;;;;;;;22.37;20.27;;;14.80;51.60;;;;;;20854;6725;118019;-67
2022/03/16 10:53:31;;;;;;;21.37;19.37;;;14.70;51.90;;;;;;21003;6695;119226;-68
2022/03/16 10:56:08;;;;;;;22.83;20.77;;;14.70;52.30;;;;;;20716;6724;338318;-69
2022/03/16 10:58:42;;;;;;;23.97;21.97;;;15.10;51.40;;;;;;20740;6715;305520;-69
2022/03/16 11:01:18;;;;;;;23.65;21.48;;;15.60;50.20;;;;;;20635;6715;335600;-72
2022/03/16 11:03:53;;;;;;;22.87;20.97;;;15.90;48.70;;;;;;20721;6710;304931;-71
2022/03/16 11:06:30;;;;;;;22.03;20.13;;;16.20;48.10;;;;;;20756;6700;307799;-71
2022/03/16 11:09:04;;;;;;;19.80;18.20;;;16.30;47.40;;;;;;20955;6715;117391;-70
2022/03/16 11:14:35;;;;;;;18.67;17.27;;;15.90;48.70;;;;;;20739;6715;308158;-69
2022/03/16 11:17:11;;;;;;;19.30;17.60;;;16.00;47.20;;;;;;20926;6725;120132;-72
2022/03/16 11:19:48;;;;;;;17.83;16.27;;;15.90;47.50;;;;;;20922;6726;118151;-76
2022/03/16 11:26:04;;;;;;;18.80;17.40;;;15.70;47.80;;;;;;20712;6725;295078;-72
2022/03/16 11:28:47;;;;;;;18.30;16.90;;;16.20;46.70;;;;;;20749;6710;338417;-72
2022/03/16 11:31:27;;;;;;;18.35;16.92;;;16.20;46.70;;;;;;20085;6818;335587;-71
2022/03/16 11:34:10;;;;;;;17.07;15.57;;;16.40;46.10;;;;;;20997;6710;117278;-75
2022/03/16 11:36:42;;;;;;;18.83;17.20;;;16.20;46.80;;;;;;20630;6746;335005;-74
2022/03/16 11:39:23;;;;;;;18.00;16.70;;;16.40;47.20;;;;;;20635;6740;304911;-69
2022/03/16 11:42:00;;;;;;;18.43;17.03;;;16.40;46.90;;;;;;20487;6740;307199;-74
2022/03/16 11:44:38;;;;;;;16.40;15.10;;;16.60;47.00;;;;;;20904;6728;117209;-69
2022/03/16 11:47:11;;;;;;;15.90;14.57;;;16.60;47.20;;;;;;20875;6730;123078;-69
2022/03/16 11:50:08;;;;;;;18.00;16.50;;;16.40;47.50;;;;;;20660;6735;290264;-72
2022/03/16 11:52:59;;;;;;;16.17;14.87;;;16.50;46.40;;;;;;20961;6715;117192;-72
2022/03/16 11:55:37;;;;;;;15.90;14.50;;;16.50;46.80;;;;;;20928;6715;120250;-71
2022/03/16 11:58:25;;;;;;;16.25;15.02;;;16.30;47.30;;;;;;20675;6730;335613;-73
2022/03/16 12:01:23;;;;;;;16.30;15.00;;;16.50;46.30;;;;;;20556;6730;280487;-73
2022/03/16 12:04:11;;;;;;;16.10;14.97;;;17.00;44.60;;;;;;20657;6743;309718;-75
2022/03/16 12:07:05;;;;;;;16.45;15.25;;;17.00;44.60;;;;;;20700;6730;300347;-73
2022/03/16 12:09:46;;;;;;;14.67;13.57;;;17.10;44.20;;;;;;20867;6737;117557;-72
2022/03/16 12:15:37;;;;;;;14.37;13.27;;;16.10;46.10;;;;;;20928;6716;117474;-76
2022/03/16 12:18:15;;;;;;;15.32;14.23;;;16.20;45.70;;;;;;20736;6716;332192;-72
2022/03/16 12:20:56;;;;;;;13.90;12.80;;;16.20;45.70;;;;;;20878;6721;120015;-74
2022/03/16 12:23:54;;;;;;;13.93;12.73;;;16.10;45.80;;;;;;21001;6697;116986;-75
2022/03/16 12:26:28;;;;;;;15.43;14.23;;;15.90;46.20;;;;;;20769;6707;333711;-74
2022/03/16 12:29:05;;;;;;;15.57;14.40;;;16.40;44.80;;;;;;20768;6707;304954;-74
2022/03/16 12:31:42;;;;;;;13.80;12.70;;;16.40;44.80;;;;;;20843;6707;124107;-74
2022/03/16 12:34:17;;;;;;;13.47;12.33;;;16.30;45.00;;;;;;20939;6722;121155;-72
2022/03/16 12:36:53;;;;;;;15.70;14.50;;;16.10;46.00;;;;;;20724;6722;295584;-71
2022/03/16 12:39:29;;;;;;;13.97;12.77;;;16.20;45.20;;;;;;20939;6717;117461;-73
2022/03/16 12:45:05;;;;;;;13.80;12.70;;;15.90;45.70;;;;;;20993;6697;117068;-72
2022/03/16 12:47:43;;;;;;;14.17;12.43;;;15.60;46.40;;;;;;20974;6716;117175;-71
2022/03/16 12:50:19;;;;;;;15.20;14.05;;;15.50;46.30;;;;;;20768;6702;278366;-70
2022/03/16 12:52:54;;;;;;;14.17;12.87;;;15.80;45.60;;;;;;20949;6716;117508;-70
2022/03/16 12:55:30;;;;;;;13.77;12.53;;;15.80;45.60;;;;;;20969;6709;123772;-71
2022/03/16 12:58:05;;;;;;;15.00;13.90;;;15.60;45.80;;;;;;20773;6705;334436;-71
2022/03/16 13:00:41;;;;;;;15.40;14.30;;;15.80;45.80;;;;;;20673;6718;277795;-69
2022/03/16 13:03:17;;;;;;;15.68;14.27;;;16.10;44.80;;;;;;20793;6688;333880;-74
2022/03/16 13:05:52;;;;;;;14.83;13.80;;;16.30;44.70;;;;;;20826;6688;304332;-73
2022/03/16 13:08:28;;;;;;;14.00;12.70;;;16.60;44.40;;;;;;21043;6688;123842;-73
2022/03/16 13:11:16;;;;;;;12.93;11.83;;;16.40;44.50;;;;;;20944;6689;117215;-74